Observation data for Hart on 07/11/2018      Previous  Date       Current Mesonet Observations  Soil Data  Daily Summary Page  Observations in Plain Language
KHRS 110500Z 18007KT 24/16 A3017 RMK A01 T02410156  RH  061%=      5-min Rain = 0
KHRS 110505Z 18007KT 24/16 A3017 RMK A01 T02400157  RH  061%=      5-min Rain = 0
KHRS 110510Z 18007KT 24/16 A3017 RMK A01 T02400157  RH  061%=      5-min Rain = 0
KHRS 110515Z 18007KT 24/16 A3017 RMK A01 T02390157  RH  062%=      5-min Rain = 0
KHRS 110520Z 19008KT 24/16 A3016 RMK A01 T02380157  RH  062%=      5-min Rain = 0
KHRS 110525Z 19008KT 24/16 A3017 RMK A01 T02370157  RH  062%=      5-min Rain = 0
KHRS 110530Z 19007KT 24/16 A3017 RMK A01 T02360158  RH  063%=      5-min Rain = 0
KHRS 110535Z 19007KT 24/16 A3017 RMK A01 T02350157  RH  063%=      5-min Rain = 0
KHRS 110540Z 19008KT 24/16 A3017 RMK A01 T02350157  RH  063%=      5-min Rain = 0
KHRS 110545Z 18008KT 24/16 A3017 RMK A01 T02350157  RH  063%=      5-min Rain = 0
KHRS 110550Z 19008KT 23/16 A3017 RMK A01 T02340158  RH  064%=      5-min Rain = 0
KHRS 110555Z 18007KT 23/16 A3017 RMK A01 T02330158  RH  064%=      5-min Rain = 0
KHRS 110600Z 18007KT 23/16 A3017 RMK A01 T02330158  RH  064%=      5-min Rain = 0
KHRS 110605Z 18007KT 23/16 A3017 RMK A01 T02330158  RH  064%=      5-min Rain = 0
KHRS 110610Z 18006KT 23/16 A3017 RMK A01 T02330158  RH  064%=      5-min Rain = 0
KHRS 110615Z 18006KT 23/16 A3017 RMK A01 T02320158  RH  065%=      5-min Rain = 0
KHRS 110620Z 18007KT 23/16 A3017 RMK A01 T02300158  RH  065%=      5-min Rain = 0
KHRS 110625Z 19008KT 23/16 A3017 RMK A01 T02290158  RH  066%=      5-min Rain = 0
KHRS 110630Z 19007KT 23/16 A3017 RMK A01 T02290158  RH  066%=      5-min Rain = 0
KHRS 110635Z 19008KT 23/16 A3017 RMK A01 T02260158  RH  067%=      5-min Rain = 0
KHRS 110640Z 19007KT 22/16 A3017 RMK A01 T02230158  RH  068%=      5-min Rain = 0
KHRS 110645Z 19007KT 22/16 A3017 RMK A01 T02210158  RH  069%=      5-min Rain = 0
KHRS 110650Z 19007KT 22/16 A3017 RMK A01 T02210158  RH  069%=      5-min Rain = 0
KHRS 110655Z 19007KT 22/16 A3017 RMK A01 T02200158  RH  069%=      5-min Rain = 0
KHRS 110700Z 19007KT 22/16 A3017 RMK A01 T02200158  RH  069%=      5-min Rain = 0
KHRS 110705Z 19006KT 22/16 A3018 RMK A01 T02190158  RH  070%=      5-min Rain = 0
KHRS 110710Z 18006KT 22/16 A3018 RMK A01 T02190158  RH  070%=      5-min Rain = 0
KHRS 110715Z 18006KT 22/16 A3017 RMK A01 T02200158  RH  070%=      5-min Rain = 0
KHRS 110720Z 18007KT 22/16 A3017 RMK A01 T02210158  RH  069%=      5-min Rain = 0
KHRS 110725Z 18007KT 22/16 A3017 RMK A01 T02210158  RH  069%=      5-min Rain = 0
KHRS 110730Z 18007KT 22/16 A3017 RMK A01 T02210158  RH  069%=      5-min Rain = 0
KHRS 110735Z 19007KT 22/16 A3017 RMK A01 T02200158  RH  069%=      5-min Rain = 0
KHRS 110740Z 18006KT 22/16 A3017 RMK A01 T02190158  RH  070%=      5-min Rain = 0
KHRS 110745Z 18006KT 22/16 A3017 RMK A01 T02190158  RH  070%=      5-min Rain = 0
KHRS 110750Z 19006KT 22/16 A3017 RMK A01 T02180158  RH  070%=      5-min Rain = 0
KHRS 110755Z 19007KT 22/16 A3017 RMK A01 T02160158  RH  071%=      5-min Rain = 0
KHRS 110800Z 19006KT 22/16 A3017 RMK A01 T02150159  RH  072%=      5-min Rain = 0
KHRS 110805Z 19006KT 21/16 A3017 RMK A01 T02130158  RH  073%=      5-min Rain = 0
KHRS 110810Z 19006KT 21/16 A3017 RMK A01 T02110158  RH  073%=      5-min Rain = 0
KHRS 110815Z 19006KT 21/16 A3017 RMK A01 T02100158  RH  074%=      5-min Rain = 0
KHRS 110820Z 18006KT 21/16 A3017 RMK A01 T02100158  RH  074%=      5-min Rain = 0
KHRS 110825Z 18005KT 21/16 A3017 RMK A01 T02110158  RH  074%=      5-min Rain = 0
KHRS 110830Z 18005KT 21/16 A3017 RMK A01 T02100158  RH  074%=      5-min Rain = 0
KHRS 110835Z 18005KT 21/16 A3016 RMK A01 T02100159  RH  074%=      5-min Rain = 0
KHRS 110840Z 19005KT 21/16 A3016 RMK A01 T02090158  RH  075%=      5-min Rain = 0
KHRS 110845Z 19004KT 21/16 A3017 RMK A01 T02070158  RH  075%=      5-min Rain = 0
KHRS 110850Z 18004KT 21/16 A3017 RMK A01 T02050158  RH  076%=      5-min Rain = 0
KHRS 110855Z 18004KT 20/16 A3017 RMK A01 T02040158  RH  077%=      5-min Rain = 0
KHRS 110900Z 18004KT 20/16 A3017 RMK A01 T02040158  RH  077%=      5-min Rain = 0
KHRS 110905Z 17004KT 20/16 A3016 RMK A01 T02040158  RH  077%=      5-min Rain = 0
KHRS 110910Z 17004KT 20/16 A3016 RMK A01 T02030158  RH  077%=      5-min Rain = 0
KHRS 110915Z 18004KT 20/16 A3016 RMK A01 T02020158  RH  078%=      5-min Rain = 0
KHRS 110920Z 18004KT 20/16 A3016 RMK A01 T02010158  RH  078%=      5-min Rain = 0
KHRS 110925Z 18004KT 20/16 A3016 RMK A01 T01990158  RH  079%=      5-min Rain = 0
KHRS 110930Z 18005KT 20/16 A3016 RMK A01 T01990159  RH  079%=      5-min Rain = 0
KHRS 110935Z 17004KT 20/16 A3016 RMK A01 T01990158  RH  079%=      5-min Rain = 0
KHRS 110940Z 17003KT 20/16 A3016 RMK A01 T01980158  RH  080%=      5-min Rain = 0
KHRS 110945Z 17004KT 20/16 A3016 RMK A01 T01960158  RH  080%=      5-min Rain = 0
KHRS 110950Z 18004KT 20/16 A3016 RMK A01 T01960159  RH  081%=      5-min Rain = 0
KHRS 110955Z 18004KT 20/16 A3016 RMK A01 T01960159  RH  081%=      5-min Rain = 0
KHRS 111000Z 17004KT 20/16 A3016 RMK A01 T01970159  RH  081%=      5-min Rain = 0
KHRS 111005Z 17003KT 20/16 A3016 RMK A01 T01950159  RH  082%=      5-min Rain = 0
KHRS 111010Z 15003KT 19/16 A3016 RMK A01 T01930159  RH  083%=      5-min Rain = 0
KHRS 111015Z 14003KT 19/16 A3016 RMK A01 T01900158  RH  084%=      5-min Rain = 0
KHRS 111020Z 14004KT 19/16 A3016 RMK A01 T01880158  RH  085%=      5-min Rain = 0
KHRS 111025Z 15003KT 19/16 A3016 RMK A01 T01870158  RH  085%=      5-min Rain = 0
KHRS 111030Z 16004KT 19/16 A3016 RMK A01 T01870158  RH  085%=      5-min Rain = 0
KHRS 111035Z 17004KT 19/16 A3016 RMK A01 T01880158  RH  085%=      5-min Rain = 0
KHRS 111040Z 17003KT 19/16 A3016 RMK A01 T01880158  RH  084%=      5-min Rain = 0
KHRS 111045Z 17004KT 19/16 A3016 RMK A01 T01880158  RH  085%=      5-min Rain = 0
KHRS 111050Z 17004KT 19/16 A3016 RMK A01 T01880158  RH  085%=      5-min Rain = 0
KHRS 111055Z 18004KT 19/16 A3015 RMK A01 T01880158  RH  085%=      5-min Rain = 0
KHRS 111100Z 18003KT 19/16 A3015 RMK A01 T01890158  RH  084%=      5-min Rain = 0
KHRS 111105Z 18003KT 19/16 A3015 RMK A01 T01890158  RH  084%=      5-min Rain = 0
KHRS 111110Z 18003KT 19/16 A3016 RMK A01 T01880157  RH  084%=      5-min Rain = 0
KHRS 111115Z 18003KT 19/16 A3016 RMK A01 T01880157  RH  084%=      5-min Rain = 0
KHRS 111120Z 18003KT 19/16 A3016 RMK A01 T01880158  RH  085%=      5-min Rain = 0
KHRS 111125Z 18003KT 19/16 A3016 RMK A01 T01880158  RH  084%=      5-min Rain = 0
KHRS 111130Z 18004KT 19/16 A3016 RMK A01 T01880158  RH  084%=      5-min Rain = 0
KHRS 111135Z 19005KT 19/16 A3016 RMK A01 T01870156  RH  084%=      5-min Rain = 0
KHRS 111140Z 19006KT 19/16 A3016 RMK A01 T01850157  RH  085%=      5-min Rain = 0
KHRS 111145Z 20006KT 19/16 A3016 RMK A01 T01870158  RH  085%=      5-min Rain = 0
KHRS 111150Z 20007KT 19/16 A3016 RMK A01 T01890159  RH  084%=      5-min Rain = 0
KHRS 111155Z 20005KT 19/16 A3016 RMK A01 T01900159  RH  084%=      5-min Rain = 0
KHRS 111200Z 20005KT 19/16 A3016 RMK A01 T01900159  RH  084%=      5-min Rain = 0
KHRS 111205Z 19005KT 19/16 A3016 RMK A01 T01900159  RH  084%=      5-min Rain = 0
KHRS 111210Z 20005KT 19/16 A3016 RMK A01 T01910160  RH  084%=      5-min Rain = 0
KHRS 111215Z 19005KT 19/16 A3016 RMK A01 T01910160  RH  084%=      5-min Rain = 0
KHRS 111220Z 20004KT 19/16 A3016 RMK A01 T01920161  RH  084%=      5-min Rain = 0
KHRS 111225Z 20004KT 19/16 A3016 RMK A01 T01940162  RH  084%=      5-min Rain = 0
KHRS 111230Z 19004KT 20/16 A3017 RMK A01 T01960163  RH  083%=      5-min Rain = 0
KHRS 111235Z 19004KT 20/16 A3017 RMK A01 T01990163  RH  082%=      5-min Rain = 0
KHRS 111240Z 19004KT 20/16 A3017 RMK A01 T02020164  RH  081%=      5-min Rain = 0
KHRS 111245Z 19004KT 21/17 A3016 RMK A01 T02060166  RH  080%=      5-min Rain = 0
KHRS 111250Z 19005KT 21/17 A3016 RMK A01 T02120167  RH  077%=      5-min Rain = 0
KHRS 111255Z 19006KT 22/17 A3017 RMK A01 T02170165  RH  074%=      5-min Rain = 0
KHRS 111300Z 19006KT 22/16 A3017 RMK A01 T02170164  RH  074%=      5-min Rain = 0
KHRS 111305Z 19007KT 22/16 A3017 RMK A01 T02170163  RH  073%=      5-min Rain = 0
KHRS 111310Z 19006KT 22/16 A3017 RMK A01 T02180162  RH  072%=      5-min Rain = 0
KHRS 111315Z 19006KT 22/16 A3017 RMK A01 T02200162  RH  071%=      5-min Rain = 0
KHRS 111320Z 19006KT 22/16 A3017 RMK A01 T02220163  RH  071%=      5-min Rain = 0
KHRS 111325Z 19006KT 22/16 A3017 RMK A01 T02240163  RH  070%=      5-min Rain = 0
KHRS 111330Z 19007KT 22/16 A3017 RMK A01 T02240162  RH  070%=      5-min Rain = 0
KHRS 111335Z 19007KT 23/16 A3016 RMK A01 T02250162  RH  069%=      5-min Rain = 0
KHRS 111340Z 19007KT 23/16 A3016 RMK A01 T02270161  RH  068%=      5-min Rain = 0
KHRS 111345Z 19007KT 23/16 A3016 RMK A01 T02290160  RH  067%=      5-min Rain = 0
KHRS 111350Z 18007KT 23/16 A3017 RMK A01 T02310159  RH  066%=      5-min Rain = 0
KHRS 111355Z 18007KT 23/16 A3017 RMK A01 T02310160  RH  066%=      5-min Rain = 0
KHRS 111400Z 18006KT 23/16 A3017 RMK A01 T02320160  RH  065%=      5-min Rain = 0
KHRS 111405Z 18008KT 23/16 A3018 RMK A01 T02340158  RH  064%=      5-min Rain = 0
KHRS 111410Z 18008KT 23/16 A3018 RMK A01 T02340156  RH  063%=      5-min Rain = 0
KHRS 111415Z 18007KT 24/16 A3018 RMK A01 T02360155  RH  062%=      5-min Rain = 0
KHRS 111420Z 17007KT 24/15 A3018 RMK A01 T02380154  RH  061%=      5-min Rain = 0
KHRS 111425Z 16007KT 24/16 A3018 RMK A01 T02390155  RH  061%=      5-min Rain = 0
KHRS 111430Z 17007KT 24/15 A3018 RMK A01 T02400152  RH  059%=      5-min Rain = 0
KHRS 111435Z 18008G13KT 24/15 A3018 RMK A01 T02410151  RH  058%=      5-min Rain = 0
KHRS 111440Z 17007KT 24/15 A3018 RMK A01 T02430152  RH  058%=      5-min Rain = 0
KHRS 111445Z 17008KT 25/15 A3018 RMK A01 T02450153  RH  058%=      5-min Rain = 0
KHRS 111450Z 18008G13KT 25/15 A3018 RMK A01 T02460151  RH  057%=      5-min Rain = 0
KHRS 111455Z 18008KT 25/15 A3018 RMK A01 T02460151  RH  057%=      5-min Rain = 0
KHRS 111500Z 18007KT 25/15 A3018 RMK A01 T02490152  RH  056%=      5-min Rain = 0
KHRS 111505Z 19008KT 25/15 A3018 RMK A01 T02510151  RH  055%=      5-min Rain = 0
KHRS 111510Z 19010KT 25/15 A3018 RMK A01 T02540146  RH  052%=      5-min Rain = 0
KHRS 111515Z 19010KT 26/15 A3018 RMK A01 T02560147  RH  052%=      5-min Rain = 0
KHRS 111520Z 19009G14KT 26/15 A3018 RMK A01 T02580147  RH  051%=      5-min Rain = 0
KHRS 111525Z 20012KT 26/15 A3018 RMK A01 T02600145  RH  050%=      5-min Rain = 0
KHRS 111530Z 20013KT 26/14 A3018 RMK A01 T02580144  RH  050%=      5-min Rain = 0
KHRS 111535Z 20012KT 26/15 A3018 RMK A01 T02590145  RH  050%=      5-min Rain = 0
KHRS 111540Z 19012KT 26/14 A3018 RMK A01 T02600143  RH  050%=      5-min Rain = 0
KHRS 111545Z 19010G15KT 26/14 A3018 RMK A01 T02600143  RH  049%=      5-min Rain = 0
KHRS 111550Z 19011KT 26/14 A3018 RMK A01 T02620143  RH  049%=      5-min Rain = 0
KHRS 111555Z 19011KT 27/14 A3018 RMK A01 T02690141  RH  046%=      5-min Rain = 0
KHRS 111600Z 20009G14KT 27/14 A3018 RMK A01 T02740142  RH  045%=      5-min Rain = 0
KHRS 111605Z 19010G15KT 27/14 A3018 RMK A01 T02740139  RH  044%=      5-min Rain = 0
KHRS 111610Z 19010KT 28/14 A3018 RMK A01 T02750140  RH  044%=      5-min Rain = 0
KHRS 111615Z 19009G14KT 28/14 A3017 RMK A01 T02780141  RH  044%=      5-min Rain = 0
KHRS 111620Z 19011G16KT 28/14 A3017 RMK A01 T02790140  RH  044%=      5-min Rain = 0
KHRS 111625Z 19009KT 28/14 A3018 RMK A01 T02810140  RH  043%=      5-min Rain = 0
KHRS 111630Z 19009KT 28/14 A3018 RMK A01 T02800139  RH  043%=      5-min Rain = 0
KHRS 111635Z 21010KT 28/14 A3017 RMK A01 T02770138  RH  043%=      5-min Rain = 0
KHRS 111640Z 20011KT 28/14 A3017 RMK A01 T02830136  RH  041%=      5-min Rain = 0
KHRS 111645Z 22008G13KT 28/14 A3017 RMK A01 T02830135  RH  041%=      5-min Rain = 0
KHRS 111650Z 21009KT 29/14 A3017 RMK A01 T02870138  RH  041%=      5-min Rain = 0
KHRS 111655Z 20007G12KT 29/14 A3017 RMK A01 T02860140  RH  041%=      5-min Rain = 0
KHRS 111700Z 18008KT 29/14 A3016 RMK A01 T02910138  RH  040%=      5-min Rain = 0
KHRS 111705Z 20009G15KT 30/14 A3016 RMK A01 T02950137  RH  039%=      5-min Rain = 0
KHRS 111710Z 18011G19KT 30/13 A3016 RMK A01 T03010131  RH  036%=      5-min Rain = 0
KHRS 111715Z 19010G17KT 30/13 A3016 RMK A01 T03000131  RH  036%=      5-min Rain = 0
KHRS 111720Z 17010G15KT 30/13 A3016 RMK A01 T02990133  RH  037%=      5-min Rain = 0
KHRS 111725Z 16010G16KT 30/14 A3016 RMK A01 T02970137  RH  038%=      5-min Rain = 0
KHRS 111730Z 16010G15KT 30/14 A3016 RMK A01 T02990135  RH  037%=      5-min Rain = 0
KHRS 111735Z 18008G13KT 30/14 A3016 RMK A01 T03030136  RH  037%=      5-min Rain = 0
KHRS 111740Z 18011G18KT 31/13 A3015 RMK A01 T03080128  RH  034%=      5-min Rain = 0
KHRS 111745Z 17008G14KT 31/13 A3015 RMK A01 T03060131  RH  035%=      5-min Rain = 0
KHRS 111750Z 19009KT 31/13 A3015 RMK A01 T03120133  RH  034%=      5-min Rain = 0
KHRS 111755Z 19009KT 31/13 A3015 RMK A01 T03130130  RH  033%=      5-min Rain = 0
KHRS 111800Z 16010G15KT 31/13 A3015 RMK A01 T03090130  RH  034%=      5-min Rain = 0
KHRS 111805Z 17011G16KT 31/13 A3015 RMK A01 T03090128  RH  034%=      5-min Rain = 0
KHRS 111810Z 17010G16KT 31/13 A3015 RMK A01 T03080130  RH  034%=      5-min Rain = 0
KHRS 111815Z 16011G18KT 31/13 A3014 RMK A01 T03050132  RH  035%=      5-min Rain = 0
KHRS 111820Z 18011G18KT 31/13 A3014 RMK A01 T03080125  RH  033%=      5-min Rain = 0
KHRS 111825Z 18010G18KT 31/13 A3014 RMK A01 T03140128  RH  033%=      5-min Rain = 0
KHRS 111830Z 19012G18KT 31/13 A3014 RMK A01 T03100128  RH  033%=      5-min Rain = 0
KHRS 111835Z 18010G17KT 31/13 A3013 RMK A01 T03120129  RH  033%=      5-min Rain = 0
KHRS 111840Z 18011G19KT 31/13 A3013 RMK A01 T03120127  RH  033%=      5-min Rain = 0
KHRS 111845Z 17010G15KT 32/13 A3013 RMK A01 T03150129  RH  033%=      5-min Rain = 0
KHRS 111850Z 17010G17KT 32/13 A3013 RMK A01 T03150128  RH  033%=      5-min Rain = 0
KHRS 111855Z 19010G15KT 31/13 A3013 RMK A01 T03130128  RH  033%=      5-min Rain = 0
KHRS 111900Z 17011G17KT 31/13 A3012 RMK A01 T03140129  RH  033%=      5-min Rain = 0
KHRS 111905Z 15010G15KT 32/13 A3012 RMK A01 T03180134  RH  033%=      5-min Rain = 0
KHRS 111910Z 16012G20KT 32/14 A3012 RMK A01 T03190136  RH  034%=      5-min Rain = 0
KHRS 111915Z 17011G16KT 32/13 A3012 RMK A01 T03180130  RH  033%=      5-min Rain = 0
KHRS 111920Z 17011G17KT 32/13 A3012 RMK A01 T03210130  RH  032%=      5-min Rain = 0
KHRS 111925Z 17013G21KT 32/13 A3012 RMK A01 T03190132  RH  033%=      5-min Rain = 0
KHRS 111930Z 17010KT 32/13 A3012 RMK A01 T03150132  RH  033%=      5-min Rain = 0
KHRS 111935Z 15012G17KT 31/13 A3011 RMK A01 T03130131  RH  034%=      5-min Rain = 0
KHRS 111940Z 17010G16KT 31/13 A3011 RMK A01 T03140128  RH  033%=      5-min Rain = 0
KHRS 111945Z 16011G16KT 32/13 A3011 RMK A01 T03180129  RH  032%=      5-min Rain = 0
KHRS 111950Z 17013G21KT 31/13 A3011 RMK A01 T03110130  RH  034%=      5-min Rain = 0
KHRS 111955Z 16011G16KT 31/13 A3011 RMK A01 T03050131  RH  035%=      5-min Rain = 0
KHRS 112000Z 16012G17KT 31/13 A3011 RMK A01 T03050132  RH  035%=      5-min Rain = 0
KHRS 112005Z 18013G21KT 32/13 A3011 RMK A01 T03200128  RH  032%=      5-min Rain = 0
KHRS 112010Z 17013G23KT 32/13 A301 RMK A01 T03200127  RH  031%=      5-min Rain = 0
KHRS 112015Z 15014G20KT 32/13 A301 RMK A01 T03160127  RH  032%=      5-min Rain = 0
KHRS 112020Z 16013G18KT 32/13 A301 RMK A01 T03160126  RH  032%=      5-min Rain = 0
KHRS 112025Z 16013G18KT 31/13 A3009 RMK A01 T03120125  RH  032%=      5-min Rain = 0
KHRS 112030Z 18014G23KT 33/13 A3009 RMK A01 T03250127  RH  031%=      5-min Rain = 0
KHRS 112035Z 18011G18KT 33/13 A3009 RMK A01 T03300128  RH  030%=      5-min Rain = 0
KHRS 112040Z 17012G17KT 33/13 A3009 RMK A01 T03270132  RH  031%=      5-min Rain = 0
KHRS 112045Z 18014G25KT 33/13 A3009 RMK A01 T03280128  RH  030%=      5-min Rain = 0
KHRS 112050Z 17013G21KT 33/13 A3008 RMK A01 T03290129  RH  030%=      5-min Rain = 0
KHRS 112055Z 17013G21KT 33/13 A3008 RMK A01 T03270128  RH  030%=      5-min Rain = 0
KHRS 112100Z 17013G20KT 33/13 A3008 RMK A01 T03270130  RH  031%=      5-min Rain = 0
KHRS 112105Z 17011G19KT 32/13 A3008 RMK A01 T03180128  RH  032%=      5-min Rain = 0
KHRS 112110Z 18012G19KT 32/13 A3007 RMK A01 T03180128  RH  032%=      5-min Rain = 0
KHRS 112115Z 18011G18KT 33/13 A3007 RMK A01 T03280127  RH  030%=      5-min Rain = 0
KHRS 112120Z 17012G18KT 33/13 A3007 RMK A01 T03280126  RH  030%=      5-min Rain = 0
KHRS 112125Z 16011G17KT 33/13 A3007 RMK A01 T03250129  RH  031%=      5-min Rain = 0
KHRS 112130Z 17013G20KT 33/13 A3006 RMK A01 T03290127  RH  030%=      5-min Rain = 0
KHRS 112135Z 16012G20KT 33/13 A3006 RMK A01 T03290128  RH  030%=      5-min Rain = 0
KHRS 112140Z 15013G20KT 33/13 A3006 RMK A01 T03290130  RH  030%=      5-min Rain = 0
KHRS 112145Z 16012G18KT 33/13 A3006 RMK A01 T03300131  RH  031%=      5-min Rain = 0
KHRS 112150Z 17011G21KT 32/13 A3006 RMK A01 T03240126  RH  031%=      5-min Rain = 0
KHRS 112155Z 16010G17KT 32/13 A3006 RMK A01 T03180125  RH  031%=      5-min Rain = 0
KHRS 112200Z 18013G22KT 32/13 A3005 RMK A01 T03200125  RH  031%=      5-min Rain = 0
KHRS 112205Z 17014G20KT 32/13 A3005 RMK A01 T03240127  RH  031%=      5-min Rain = 0
KHRS 112210Z 15013G19KT 33/13 A3005 RMK A01 T03250127  RH  031%=      5-min Rain = 0
KHRS 112215Z 17012G18KT 32/13 A3006 RMK A01 T03190126  RH  031%=      5-min Rain = 0
KHRS 112220Z 17011G20KT 31/13 A3006 RMK A01 T03130126  RH  033%=      5-min Rain = 0
KHRS 112225Z 15011G16KT 31/13 A3005 RMK A01 T03140128  RH  033%=      5-min Rain = 0
KHRS 112230Z 15011G17KT 31/13 A3005 RMK A01 T03130126  RH  033%=      5-min Rain = 0
KHRS 112235Z 17009G14KT 31/13 A3005 RMK A01 T03120126  RH  033%=      5-min Rain = 0
KHRS 112240Z 17010G18KT 32/13 A3005 RMK A01 T03180126  RH  032%=      5-min Rain = 0
KHRS 112245Z 17009G14KT 32/13 A3005 RMK A01 T03200126  RH  031%=      5-min Rain = 0
KHRS 112250Z 16011G17KT 32/13 A3005 RMK A01 T03170125  RH  032%=      5-min Rain = 0
KHRS 112255Z 15011G18KT 32/13 A3005 RMK A01 T03210127  RH  031%=      5-min Rain = 0
KHRS 112300Z 14013G19KT 32/13 A3005 RMK A01 T03180126  RH  032%=      5-min Rain = 0
KHRS 112305Z 15012G20KT 32/13 A3005 RMK A01 T03190127  RH  032%=      5-min Rain = 0
KHRS 112310Z 16011G18KT 32/13 A3005 RMK A01 T03190127  RH  032%=      5-min Rain = 0
KHRS 112315Z 16011G16KT 32/13 A3005 RMK A01 T03150130  RH  033%=      5-min Rain = 0
KHRS 112320Z 16010KT 31/13 A3005 RMK A01 T03140127  RH  033%=      5-min Rain = 0
KHRS 112325Z 16011G17KT 31/13 A3004 RMK A01 T03130127  RH  033%=      5-min Rain = 0
KHRS 112330Z 16012G17KT 31/13 A3004 RMK A01 T03140126  RH  032%=      5-min Rain = 0
KHRS 112335Z 17011G16KT 32/12 A3004 RMK A01 T03150123  RH  032%=      5-min Rain = 0
KHRS 112340Z 17010G16KT 31/13 A3004 RMK A01 T03130125  RH  032%=      5-min Rain = 0
KHRS 112345Z 17010G16KT 31/13 A3004 RMK A01 T03110125  RH  033%=      5-min Rain = 0
KHRS 112350Z 17010KT 31/13 A3005 RMK A01 T03090129  RH  034%=      5-min Rain = 0
KHRS 112355Z 16011G18KT 31/13 A3005 RMK A01 T03050126  RH  034%=      5-min Rain = 0
KHRS 120000Z 17009G16KT 30/13 A3005 RMK A01 T03040125  RH  034%=      5-min Rain = 0
KHRS 120005Z 17009G16KT 31/12 A3005 RMK A01 T03050123  RH  033%=      5-min Rain = 0
KHRS 120010Z 18011G16KT 31/12 A3005 RMK A01 T03070121  RH  033%=      5-min Rain = 0
KHRS 120015Z 18010G15KT 31/12 A3006 RMK A01 T03070121  RH  033%=      5-min Rain = 0
KHRS 120020Z 21011KT 30/13 A3006 RMK A01 T03010134  RH  037%=      5-min Rain = 0
KHRS 120025Z 21009KT 29/14 A3006 RMK A01 T02870144  RH  042%=      5-min Rain = 0
KHRS 120030Z 23008KT 28/15 A3006 RMK A01 T02830145  RH  044%=      5-min Rain = 0
KHRS 120035Z 23006KT 28/15 A3006 RMK A01 T02810145  RH  044%=      5-min Rain = 0
KHRS 120040Z 22004KT 28/15 A3006 RMK A01 T02810146  RH  045%=      5-min Rain = 0
KHRS 120045Z 22005KT 28/15 A3006 RMK A01 T02800146  RH  045%=      5-min Rain = 0
KHRS 120050Z 23004KT 28/15 A3006 RMK A01 T02790148  RH  046%=      5-min Rain = 0
KHRS 120055Z 25004KT 28/15 A3006 RMK A01 T02780151  RH  047%=      5-min Rain = 0
KHRS 120100Z 23002KT 28/15 A3006 RMK A01 T02770152  RH  047%=      5-min Rain = 0
KHRS 120105Z 21002KT 28/15 A3006 RMK A01 T02770152  RH  047%=      5-min Rain = 0
KHRS 120110Z 19001KT 28/15 A3006 RMK A01 T02780151  RH  047%=      5-min Rain = 0
KHRS 120115Z 15001KT 28/15 A3006 RMK A01 T02790153  RH  047%=      5-min Rain = 0
KHRS 120120Z 14002KT 28/15 A3006 RMK A01 T02790153  RH  047%=      5-min Rain = 0
KHRS 120125Z 15004KT 28/14 A3007 RMK A01 T02790143  RH  044%=      5-min Rain = 0
KHRS 120130Z 15005KT 28/14 A3007 RMK A01 T02810139  RH  043%=      5-min Rain = 0
KHRS 120135Z 16006KT 28/14 A3007 RMK A01 T02820139  RH  042%=      5-min Rain = 0
KHRS 120140Z 16009G15KT 28/14 A3007 RMK A01 T02820139  RH  042%=      5-min Rain = 0
KHRS 120145Z 17010KT 28/14 A3008 RMK A01 T02800136  RH  042%=      5-min Rain = 0
KHRS 120150Z 15012G18KT 28/13 A3008 RMK A01 T02770134  RH  042%=      5-min Rain = 0
KHRS 120155Z 15010G16KT 28/13 A3008 RMK A01 T02760134  RH  043%=      5-min Rain = 0
KHRS 120200Z 16012G19KT 28/14 A3008 RMK A01 T02750138  RH  044%=      5-min Rain = 0
KHRS 120205Z 17012G19KT 27/15 A3008 RMK A01 T02700153  RH  050%=      5-min Rain = 0
KHRS 120210Z 16011G17KT 26/16 A3008 RMK A01 T02590157  RH  055%=      5-min Rain = 0
KHRS 120215Z 14014KT 25/16 A3008 RMK A01 T02530158  RH  057%=      5-min Rain = 0
KHRS 120220Z 14014KT 26/15 A3008 RMK A01 T02550154  RH  055%=      5-min Rain = 0
KHRS 120225Z 14014KT 26/15 A3008 RMK A01 T02560153  RH  054%=      5-min Rain = 0
KHRS 120230Z 14013KT 26/15 A3009 RMK A01 T02570152  RH  053%=      5-min Rain = 0
KHRS 120235Z 13011KT 26/15 A3009 RMK A01 T02590149  RH  052%=      5-min Rain = 0
KHRS 120240Z 13010KT 26/15 A3009 RMK A01 T02590151  RH  053%=      5-min Rain = 0
KHRS 120245Z 13008KT 26/15 A3009 RMK A01 T02590153  RH  053%=      5-min Rain = 0
KHRS 120250Z 14008KT 26/15 A3009 RMK A01 T02590154  RH  053%=      5-min Rain = 0
KHRS 120255Z 13011KT 26/15 A3009 RMK A01 T02610152  RH  052%=      5-min Rain = 0
KHRS 120300Z 13012KT 26/15 A301 RMK A01 T02620152  RH  052%=      5-min Rain = 0
KHRS 120305Z 13012KT 26/15 A301 RMK A01 T02630152  RH  052%=      5-min Rain = 0
KHRS 120310Z 12011KT 26/16 A301 RMK A01 T02600155  RH  053%=      5-min Rain = 0
KHRS 120315Z 12012KT 26/15 A301 RMK A01 T02580153  RH  053%=      5-min Rain = 0
KHRS 120320Z 11012KT 26/15 A301 RMK A01 T02570152  RH  053%=      5-min Rain = 0
KHRS 120325Z 11011KT 25/15 A301 RMK A01 T02540152  RH  054%=      5-min Rain = 0
KHRS 120330Z 11010KT 25/15 A301 RMK A01 T02520154  RH  056%=      5-min Rain = 0
KHRS 120335Z 11010KT 25/15 A301 RMK A01 T02490154  RH  057%=      5-min Rain = 0
KHRS 120340Z 11009KT 25/15 A3011 RMK A01 T02480153  RH  057%=      5-min Rain = 0
KHRS 120345Z 11009KT 25/15 A3011 RMK A01 T02490153  RH  056%=      5-min Rain = 0
KHRS 120350Z 12008KT 25/15 A3011 RMK A01 T02500152  RH  056%=      5-min Rain = 0
KHRS 120355Z 12009KT 25/15 A3012 RMK A01 T02510150  RH  055%=      5-min Rain = 0
KHRS 120400Z 12008KT 25/15 A3012 RMK A01 T02530150  RH  054%=      5-min Rain = 0
KHRS 120405Z 13007KT 25/15 A3012 RMK A01 T02530151  RH  054%=      5-min Rain = 0
KHRS 120410Z 13008KT 25/15 A3012 RMK A01 T02520152  RH  055%=      5-min Rain = 0
KHRS 120415Z 13007KT 25/15 A3011 RMK A01 T02510152  RH  055%=      5-min Rain = 0
KHRS 120420Z 13008KT 25/15 A3011 RMK A01 T02500152  RH  055%=      5-min Rain = 0
KHRS 120425Z 13008KT 25/15 A3011 RMK A01 T02500152  RH  056%=      5-min Rain = 0
KHRS 120430Z 13007KT 25/15 A3012 RMK A01 T02490152  RH  056%=      5-min Rain = 0
KHRS 120435Z 13007KT 25/15 A3012 RMK A01 T02490153  RH  057%=      5-min Rain = 0
KHRS 120440Z 14007KT 25/15 A3012 RMK A01 T02490154  RH  057%=      5-min Rain = 0
KHRS 120445Z 21011KT 25/16 A3013 RMK A01 T02490156  RH  058%=      5-min Rain = 0
KHRS 120450Z 21012KT 25/16 A3014 RMK A01 T02480159  RH  059%=      5-min Rain = 0
KHRS 120455Z 22011G16KT 25/16 A3014 RMK A01 T02470159  RH  059%=      5-min Rain = 0

Page generated in 0.0126 seconds.